Portada
METAR-TAF:

METAR-TAF

Aeroports :

Curaçao, Antilles Neerlandeses

latitud: 12-12N, longitud: 068-58W, altitud: 9 m

Observació

L'informe es va fer fa 53 minuts, a les 10:00 UTC
Vent 10 kt del Est
Temperatura 27°C
Humitat 74%
Pressió 1013 hPa
Visibilitat 10 km o més
Escasses núvols a una alçada de 1800 ft

METAR: TNCC 051000Z 09010KT 9999 FEW018 27/22 Q1013 NOSIG

Hora: 06:53 (10:53 UTC)

Pronòstic

L'informe es va fer fa 5 hores i 38 minuts, a les 05:15 UTC
Pronòstic vàlid del 05 a les 06 UTC al 06 a les 06 UTC
Vent 11 kt del Est
Visibilitat 10 km o més
Núvols disperses a una alçada de 2000 ft
Probabilitat 40% :
Temporalment
l' 05 a les 06 UTC al 06 a les 06 UTC
Visibilitat: 7000 m
Cel ennuvolat a una alçada de 1500 ft
xàfecs de pluja

TAF: TNCC 050515Z 0506/0606 08011KT 9999 SCT020 PROB40 TEMPO 0506/0606 7000 SHRA BKN015

Observacions i pronòstics meteorològics de més de 4000 aeroports (METAR i TAF).

Les estacions disponibles són els punts grocs i vermells al mapa.

Posi el ratolí al punt desitjat per veure el nom de l'estació.

Feu clic per veure les observacions i els pronòstics meteorològics.

Per canviar el mapa: feu clic els botons verds amb una creu de color negre per apropar; al botó verd amb un guió per allunyar la imatge; o en les fletxes verdes per a mapes adjacents.


METAR-TAF: